PHKO METAR and TAF weather

Enter ICAO airport designator
Station Type Date Time Source
PHKO METAR 2018/12/15 19:53 UTC NOAA

PHKO 151953Z VRB03KT 10SM SCT045 26/15 A3008 RMK AO2 SLP188 T02610150


Station Type Date Time Source
PHKO Decoded METAR 2018/12/15 19:53 UTC NOAA

KONA INTERNATIONAL AIRPORT, HI, United States (PHKO) 19-44N 156-03W 27M
Dec 15, 2018 - 02:53 PM EST / 2018.12.15 1953 UTC
Wind: Variable at 3 MPH (3 KT):0
Visibility: 10 mile(s):0
Sky conditions: partly cloudy
Temperature: 79.0 F (26.1 C)
Dew Point: 59.0 F (15.0 C)
Relative Humidity: 50%
Pressure (altimeter): 30.08 in. Hg (1018 hPa)
ob: PHKO 151953Z VRB03KT 10SM SCT045 26/15 A3008 RMK AO2 SLP188 T02610150
cycle: 20

Station Type Date Time Source
PHKO TAF 2018/12/15 18:45 UTC NOAA

TAF PHKO 151742Z 1518/1618 07006KT P6SM FEW025
FM152000 24009KT P6SM FEW030 SCT050
FM160500 VRB05KT P6SM FEW025 BKN050


Example: see airport list